createdAt,value
2019-04-16T04:00:44.298Z,38.07
2019-04-16T04:02:43.529Z,38.17
2019-04-16T04:04:43.512Z,38.38
2019-04-16T04:06:43.505Z,38.17
2019-04-16T04:08:47.921Z,38.36
2019-04-16T04:10:44.443Z,38.26
2019-04-16T04:12:45.640Z,38.46
2019-04-16T04:14:43.439Z,38.34
2019-04-16T04:16:43.390Z,38.24
2019-04-16T04:18:43.978Z,38.24
2019-04-16T04:20:43.367Z,38.45
2019-04-16T04:22:43.331Z,38.14
2019-04-16T04:24:43.315Z,38.12
2019-04-16T04:26:43.283Z,38.55
2019-04-16T04:28:43.251Z,38.32
2019-04-16T04:30:43.318Z,38.22
2019-04-16T04:32:43.248Z,38.22
2019-04-16T04:34:45.399Z,38.51
2019-04-16T04:36:44.225Z,37.90
2019-04-16T04:38:43.198Z,37.69
2019-04-16T04:40:44.735Z,38.00
2019-04-16T04:42:43.109Z,37.18
2019-04-16T04:44:43.124Z,37.18
2019-04-16T04:46:45.881Z,37.90
2019-04-16T04:48:43.048Z,37.68
2019-04-16T04:50:43.050Z,37.88
2019-04-16T04:52:43.223Z,37.16
2019-04-16T04:54:43.061Z,37.26
2019-04-16T04:56:42.977Z,37.47
2019-04-16T04:58:42.961Z,38.39
2019-04-16T05:00:42.913Z,36.75
2019-04-16T05:02:43.801Z,36.53
2019-04-16T05:04:42.878Z,36.72
2019-04-16T05:06:42.855Z,37.43
2019-04-16T05:08:42.839Z,37.33
2019-04-16T05:10:44.051Z,36.82
2019-04-16T05:12:43.796Z,36.60
2019-04-16T05:14:42.840Z,37.21
2019-04-16T05:16:42.745Z,36.80
2019-04-16T05:18:42.767Z,36.27
2019-04-16T05:20:46.745Z,36.38
2019-04-16T05:22:42.727Z,36.25
2019-04-16T05:24:42.657Z,36.46
2019-04-16T05:26:42.650Z,35.72
2019-04-16T05:28:45.492Z,35.40
2019-04-16T05:30:42.619Z,35.40
2019-04-16T05:32:42.592Z,35.49
2019-04-16T05:34:49.599Z,34.53
2019-04-16T05:36:46.189Z,32.05
2019-04-16T05:38:42.515Z,31.71
2019-04-16T05:40:42.479Z,31.52
2019-04-16T05:42:42.463Z,32.10
2019-04-16T05:44:42.454Z,30.60
2019-04-16T05:46:46.477Z,27.40
2019-04-16T05:48:42.398Z,25.27
2019-04-16T05:50:42.387Z,24.40
2019-04-16T05:52:42.348Z,23.65
2019-04-16T05:54:44.383Z,23.71
2019-04-16T05:56:42.325Z,22.47
2019-04-16T05:58:42.304Z,22.63
2019-04-16T06:00:42.452Z,22.71
2019-04-16T06:02:42.901Z,22.08
2019-04-16T06:04:42.222Z,22.06
2019-04-16T06:06:42.273Z,22.34
2019-04-16T06:08:42.192Z,21.93
2019-04-16T06:10:42.210Z,22.11
2019-04-16T06:12:42.152Z,22.59
2019-04-16T06:14:42.181Z,22.49
2019-04-16T06:16:42.140Z,22.08
2019-04-16T06:18:42.083Z,21.97
2019-04-16T06:20:42.062Z,21.66
2019-04-16T06:22:42.086Z,22.14
2019-04-16T06:24:42.031Z,22.13
2019-04-16T06:26:44.449Z,22.12
2019-04-16T06:28:42.964Z,21.62
2019-04-16T06:30:42.001Z,21.81
2019-04-16T06:32:41.953Z,21.80
2019-04-16T06:34:41.925Z,22.69
2019-04-16T06:36:41.886Z,21.90
2019-04-16T06:38:41.950Z,21.59
2019-04-16T06:40:41.849Z,21.69
2019-04-16T06:42:41.845Z,21.98
2019-04-16T06:44:41.804Z,21.69
2019-04-16T06:46:41.856Z,22.08
2019-04-16T06:48:42.484Z,21.88
2019-04-16T06:50:41.740Z,22.47
2019-04-16T06:52:41.729Z,21.80
2019-04-16T06:54:41.761Z,21.69
2019-04-16T06:56:41.677Z,21.59
2019-04-16T06:58:50.654Z,21.59
2019-04-16T07:00:42.623Z,21.80
2019-04-16T07:02:44.035Z,22.58
2019-04-16T07:04:42.584Z,22.69
2019-04-16T07:06:43.724Z,22.78
2019-04-16T07:08:41.979Z,22.50
2019-04-16T07:10:44.781Z,23.39
2019-04-16T07:12:41.534Z,22.91
2019-04-16T07:14:41.550Z,22.61
2019-04-16T07:16:41.450Z,22.92
2019-04-16T07:18:41.449Z,23.61
2019-04-16T07:20:42.257Z,23.62
2019-04-16T07:22:41.439Z,24.02
2019-04-16T07:24:41.430Z,24.33
2019-04-16T07:26:46.255Z,24.65
2019-04-16T07:28:42.863Z,24.77
2019-04-16T07:30:41.403Z,24.79
2019-04-16T07:32:41.316Z,25.89
2019-04-16T07:34:41.248Z,25.90
2019-04-16T07:36:41.319Z,25.71
2019-04-16T07:38:41.214Z,26.32
2019-04-16T07:40:41.207Z,26.42
2019-04-16T07:42:51.638Z,26.84
2019-04-16T07:44:42.200Z,27.14
2019-04-16T07:46:41.137Z,27.63
2019-04-16T07:48:41.115Z,27.73
2019-04-16T07:50:41.079Z,27.74
2019-04-16T07:52:41.926Z,28.14
2019-04-16T07:54:41.044Z,28.25
2019-04-16T07:56:41.026Z,28.94
2019-04-16T07:58:40.997Z,28.66
2019-04-16T08:00:41.612Z,29.07
2019-04-16T08:02:40.952Z,29.19
2019-04-16T08:04:40.955Z,29.60
2019-04-16T08:06:46.257Z,29.90
2019-04-16T08:08:41.975Z,29.81
2019-04-16T08:10:40.889Z,29.51
2019-04-16T08:12:42.224Z,30.30
2019-04-16T08:14:40.815Z,30.11
2019-04-16T08:16:47.709Z,30.00
2019-04-16T08:18:41.798Z,30.32
2019-04-16T08:20:40.772Z,29.72
2019-04-16T08:22:40.736Z,30.22
2019-04-16T08:24:40.769Z,30.42
2019-04-16T08:26:41.659Z,30.72
2019-04-16T08:28:40.691Z,30.22
2019-04-16T08:30:40.642Z,30.12
2019-04-16T08:32:40.679Z,30.22
2019-04-16T08:34:40.606Z,30.41
2019-04-16T08:36:40.577Z,30.41
2019-04-16T08:38:40.609Z,30.51
2019-04-16T08:40:40.542Z,30.41
2019-04-16T08:42:44.558Z,30.70
2019-04-16T08:44:40.500Z,30.51
2019-04-16T08:46:41.244Z,30.51
2019-04-16T08:48:40.481Z,30.60
2019-04-16T08:50:40.441Z,30.70
2019-04-16T08:52:41.763Z,31.00
2019-04-16T08:54:40.460Z,30.80
2019-04-16T08:56:40.376Z,31.21
2019-04-16T08:58:40.397Z,31.21
2019-04-16T09:00:40.324Z,31.41
2019-04-16T09:02:40.389Z,31.32
2019-04-16T09:04:40.290Z,31.43
2019-04-16T09:06:42.636Z,31.15
2019-04-16T09:08:41.318Z,31.54
2019-04-16T09:10:40.210Z,31.24
2019-04-16T09:12:44.874Z,31.24
2019-04-16T09:14:41.179Z,31.15
2019-04-16T09:16:43.440Z,31.36
2019-04-16T09:18:40.144Z,31.24
2019-04-16T09:20:40.116Z,31.43
2019-04-16T09:22:48.957Z,31.43
2019-04-16T09:24:41.662Z,31.33
2019-04-16T09:26:40.034Z,31.73
2019-04-16T09:28:40.017Z,31.32
2019-04-16T09:30:40.036Z,31.41
2019-04-16T09:32:39.968Z,31.61
2019-04-16T09:34:40.373Z,31.02
2019-04-16T09:36:39.994Z,31.20
2019-04-16T09:38:45.085Z,31.80
2019-04-16T09:40:40.879Z,30.79
2019-04-16T09:42:39.867Z,30.69
2019-04-16T09:44:39.893Z,30.89
2019-04-16T09:46:50.967Z,30.49
2019-04-16T09:48:40.815Z,30.79
2019-04-16T09:50:44.954Z,30.29
2019-04-16T09:52:40.779Z,30.29
2019-04-16T09:54:41.499Z,30.59
2019-04-16T09:58:30.068Z,30.38
2019-04-16T10:00:30.052Z,30.18
2019-04-16T10:02:30.050Z,30.28
2019-04-16T10:04:30.047Z,30.08
2019-04-16T10:06:29.994Z,30.28
2019-04-16T10:08:29.995Z,30.47
2019-04-16T10:10:29.942Z,30.68
2019-04-16T10:12:29.939Z,30.57
2019-04-16T10:14:30.190Z,30.47
2019-04-16T10:16:29.925Z,30.47
2019-04-16T10:18:34.668Z,30.08
2019-04-16T10:20:30.846Z,30.77
2019-04-16T10:22:29.798Z,30.46
2019-04-16T10:24:30.762Z,31.35
2019-04-16T10:26:29.759Z,30.46
2019-04-16T10:28:29.763Z,30.46
2019-04-16T10:30:30.256Z,30.08
2019-04-16T10:32:29.761Z,30.77
2019-04-16T10:34:29.769Z,31.27
2019-04-16T10:36:29.708Z,31.07
2019-04-16T10:38:29.665Z,31.17
2019-04-16T10:40:29.690Z,31.37
2019-04-16T10:42:29.614Z,31.27
2019-04-16T10:44:29.614Z,31.17
2019-04-16T10:46:29.573Z,31.37
2019-04-16T10:48:29.543Z,31.09
2019-04-16T10:50:29.603Z,31.07
2019-04-16T10:52:29.599Z,31.37
2019-04-16T10:54:29.481Z,30.87
2019-04-16T10:56:29.427Z,30.97
2019-04-16T10:58:29.545Z,30.77
2019-04-16T11:00:29.386Z,30.97
2019-04-16T11:02:29.449Z,30.87
2019-04-16T11:04:29.384Z,30.97
2019-04-16T11:06:29.328Z,31.09
2019-04-16T11:08:29.331Z,31.29
2019-04-16T11:10:29.307Z,31.48
2019-04-16T11:12:29.267Z,31.10
2019-04-16T11:14:29.280Z,31.30
2019-04-16T11:16:29.222Z,31.50
2019-04-16T11:18:29.326Z,31.40
2019-04-16T11:20:29.205Z,31.38
2019-04-16T11:22:29.153Z,31.29
2019-04-16T11:24:29.158Z,31.47
2019-04-16T11:26:29.177Z,31.07
2019-04-16T11:28:29.126Z,31.07
2019-04-16T11:30:29.074Z,31.17
2019-04-16T11:32:29.033Z,31.17
2019-04-16T11:34:29.267Z,31.27
2019-04-16T11:36:30.906Z,31.47
2019-04-16T11:38:29.011Z,31.37
2019-04-16T11:40:28.992Z,31.57
2019-04-16T11:42:28.970Z,31.57
2019-04-16T11:44:28.938Z,31.57
2019-04-16T11:46:28.906Z,32.06
2019-04-16T11:48:28.907Z,31.27
2019-04-16T11:50:28.929Z,31.65
2019-04-16T11:52:28.820Z,31.45
2019-04-16T11:54:28.824Z,31.35
2019-04-16T11:56:28.807Z,31.67
2019-04-16T11:58:28.782Z,31.55
2019-04-16T12:00:28.730Z,31.65
2019-04-16T12:02:28.737Z,31.65
2019-04-16T12:04:28.748Z,31.26
2019-04-16T12:06:28.907Z,31.85
2019-04-16T12:08:28.721Z,31.75
2019-04-16T12:10:28.636Z,31.77
2019-04-16T12:12:28.716Z,32.17
2019-04-16T12:14:32.260Z,31.77
2019-04-16T12:16:29.596Z,31.67
2019-04-16T12:18:31.829Z,31.57
2019-04-16T12:20:28.609Z,31.47
2019-04-16T12:22:28.519Z,31.47
2019-04-16T12:24:28.521Z,31.55
2019-04-16T12:26:28.494Z,31.35
2019-04-16T12:28:28.473Z,31.55
2019-04-16T12:30:28.403Z,31.85
2019-04-16T12:32:28.406Z,31.87
2019-04-16T12:34:28.368Z,32.06
2019-04-16T12:36:28.512Z,31.95
2019-04-16T12:38:28.335Z,32.15
2019-04-16T12:40:28.370Z,31.95
2019-04-16T12:42:28.312Z,32.06
2019-04-16T12:44:28.308Z,31.96
2019-04-16T12:46:28.284Z,32.26
2019-04-16T12:48:28.243Z,32.08
2019-04-16T12:50:28.253Z,32.76
2019-04-16T12:52:28.215Z,33.36
2019-04-16T12:54:28.183Z,32.96
2019-04-16T12:56:28.143Z,32.86
2019-04-16T12:58:28.088Z,32.06
2019-04-16T13:00:31.496Z,31.96
2019-04-16T13:02:28.086Z,32.76
2019-04-16T13:04:28.039Z,33.25
2019-04-16T13:06:28.018Z,33.17
2019-04-16T13:08:28.038Z,33.06
2019-04-16T13:10:27.979Z,33.06
2019-04-16T13:12:27.964Z,32.96
2019-04-16T13:14:27.912Z,32.75
2019-04-16T13:16:28.013Z,32.94
2019-04-16T13:18:27.880Z,33.14
2019-04-16T13:20:29.524Z,32.76
2019-04-16T13:22:27.845Z,32.75
2019-04-16T13:24:27.873Z,32.76
2019-04-16T13:26:27.804Z,32.76
2019-04-16T13:28:27.800Z,32.64
2019-04-16T13:30:27.743Z,32.84
2019-04-16T13:32:28.046Z,32.84
2019-04-16T13:34:27.715Z,32.84
2019-04-16T13:36:28.088Z,32.75
2019-04-16T13:38:27.660Z,33.14
2019-04-16T13:40:27.667Z,33.14
2019-04-16T13:42:27.638Z,32.75
2019-04-16T13:44:27.610Z,33.25
2019-04-16T13:46:29.490Z,32.96
2019-04-16T13:48:28.191Z,33.06
2019-04-16T13:50:27.538Z,32.97
2019-04-16T13:52:27.537Z,33.07
2019-04-16T13:54:28.137Z,33.17
2019-04-16T13:56:27.568Z,33.17
2019-04-16T13:58:27.440Z,32.97
2019-04-16T14:00:27.418Z,32.97
2019-04-16T14:02:27.403Z,32.97
2019-04-16T14:04:30.445Z,33.15
2019-04-16T14:06:27.375Z,33.45
2019-04-16T14:08:27.359Z,33.25
2019-04-16T14:10:27.304Z,33.25
2019-04-16T14:12:41.195Z,33.25
2019-04-16T14:14:28.279Z,33.75
2019-04-16T14:16:27.281Z,33.76
2019-04-16T14:18:29.634Z,33.87
2019-04-16T14:20:28.263Z,33.67
2019-04-16T14:22:27.185Z,34.06
2019-04-16T14:24:27.168Z,33.78
2019-04-16T14:26:27.125Z,34.80
2019-04-16T14:28:27.194Z,34.73
2019-04-16T14:30:27.101Z,34.43
2019-04-16T14:32:27.071Z,34.33
2019-04-16T14:34:29.792Z,34.45
2019-04-16T14:36:27.061Z,34.94
2019-04-16T14:38:27.093Z,34.16
2019-04-16T14:40:27.012Z,34.34
2019-04-16T14:42:26.955Z,34.55
2019-04-16T14:44:27.012Z,33.93
2019-04-16T14:46:28.430Z,34.63
2019-04-16T14:48:26.905Z,33.81
2019-04-16T14:50:26.878Z,33.90
2019-04-16T14:52:26.962Z,34.20
2019-04-16T14:54:26.835Z,33.39
2019-04-16T14:56:26.811Z,33.48
2019-04-16T14:58:26.784Z,33.47
2019-04-16T15:00:26.759Z,33.17
2019-04-16T15:02:29.322Z,33.76
2019-04-16T15:04:26.715Z,33.67
2019-04-16T15:06:26.784Z,33.87
2019-04-16T15:08:26.687Z,33.69
2019-04-16T15:10:26.671Z,33.09
2019-04-16T15:12:26.637Z,33.88
2019-04-16T15:14:26.836Z,33.09
2019-04-16T15:16:26.610Z,33.98
2019-04-16T15:18:27.022Z,33.69
2019-04-16T15:20:26.543Z,33.39
2019-04-16T15:22:26.637Z,34.50
2019-04-16T15:24:26.536Z,34.20
2019-04-16T15:26:26.503Z,34.59
2019-04-16T15:28:26.465Z,33.90
2019-04-16T15:30:28.572Z,34.01
2019-04-16T15:32:26.428Z,34.11
2019-04-16T15:34:26.419Z,34.11
2019-04-16T15:36:26.371Z,34.30
2019-04-16T15:38:26.617Z,33.90
2019-04-16T15:40:26.337Z,33.78
2019-04-16T15:42:26.366Z,34.50
2019-04-16T15:44:26.294Z,34.71
2019-04-16T15:46:26.968Z,34.43
2019-04-16T15:48:26.262Z,33.93
2019-04-16T15:50:26.264Z,35.64
2019-04-16T15:52:26.198Z,35.64
2019-04-16T15:54:26.229Z,35.54
2019-04-16T15:56:26.167Z,35.36
2019-04-16T15:58:26.148Z,35.26
2019-04-16T16:00:26.119Z,35.38
2019-04-16T16:02:26.163Z,35.38
2019-04-16T16:04:26.085Z,35.08
2019-04-16T16:06:26.078Z,35.38
2019-04-16T16:08:27.002Z,35.58
2019-04-16T16:10:26.057Z,35.29
2019-04-16T16:12:25.978Z,35.79
2019-04-16T16:14:25.976Z,35.89
2019-04-16T16:16:40.555Z,36.11
2019-04-16T16:18:27.056Z,35.61
2019-04-16T16:20:25.926Z,35.63
2019-04-16T16:22:25.894Z,35.72
2019-04-16T16:24:25.855Z,36.34
2019-04-16T16:26:25.965Z,35.74
2019-04-16T16:28:25.825Z,36.16
2019-04-16T16:30:25.789Z,36.26
2019-04-16T16:32:25.756Z,36.68
2019-04-16T16:34:25.815Z,36.49
2019-04-16T16:38:27.728Z,37.01
2019-04-16T16:40:25.659Z,37.73
2019-04-16T16:42:25.728Z,37.16
2019-04-16T16:44:25.634Z,37.28
2019-04-16T16:46:25.614Z,37.80
2019-04-16T16:48:25.613Z,37.42
2019-04-16T16:50:25.568Z,37.63
2019-04-16T16:52:25.679Z,37.65
2019-04-16T16:54:25.546Z,37.26
2019-04-16T16:56:25.511Z,38.16
2019-04-16T16:58:25.505Z,37.87
2019-04-16T17:00:25.461Z,37.87
2019-04-16T17:02:25.456Z,37.39
2019-04-16T17:04:25.411Z,37.29
2019-04-16T17:06:25.428Z,37.49
2019-04-16T17:08:27.104Z,37.81
2019-04-16T17:10:25.400Z,38.31
2019-04-16T17:12:25.323Z,37.83
2019-04-16T17:14:25.330Z,38.05
2019-04-16T17:16:25.317Z,38.17
2019-04-16T17:18:25.253Z,37.87
2019-04-16T17:20:25.229Z,37.96
2019-04-16T17:22:25.240Z,38.08
2019-04-16T17:24:25.190Z,38.28
2019-04-16T17:26:25.180Z,37.80
2019-04-16T17:28:25.217Z,38.10
2019-04-16T17:30:25.129Z,38.50
2019-04-16T17:32:25.114Z,38.10
2019-04-16T17:34:27.621Z,37.92
2019-04-16T17:36:25.191Z,38.54
2019-04-16T17:38:25.050Z,38.32
2019-04-16T17:40:25.019Z,38.34
2019-04-16T17:42:25.008Z,38.44
2019-04-16T17:44:27.338Z,38.34
2019-04-16T17:46:25.170Z,38.13
2019-04-16T17:48:32.005Z,38.15
2019-04-16T17:50:24.918Z,38.57
2019-04-16T17:52:24.891Z,39.06
2019-04-16T17:54:24.888Z,39.08
2019-04-16T17:56:24.871Z,38.68
2019-04-16T17:58:27.326Z,38.70
2019-04-16T18:00:24.815Z,38.90
2019-04-16T18:02:25.003Z,38.39
2019-04-16T18:04:27.688Z,38.49
2019-04-16T18:06:24.785Z,38.59
2019-04-16T18:08:25.782Z,38.49
2019-04-16T18:10:26.689Z,38.51
2019-04-16T18:12:24.728Z,38.61
2019-04-16T18:14:26.439Z,38.21
2019-04-16T18:16:24.731Z,38.43
2019-04-16T18:18:24.693Z,38.41
2019-04-16T18:20:24.631Z,38.51
2019-04-16T18:22:24.613Z,38.63
2019-04-16T18:24:24.583Z,39.04
2019-04-16T18:26:24.575Z,38.73
2019-04-16T18:28:24.539Z,38.73
2019-04-16T18:30:24.557Z,38.63
2019-04-16T18:32:27.638Z,38.75
2019-04-16T18:34:25.470Z,39.46
2019-04-16T18:36:24.449Z,39.26
2019-04-16T18:38:28.605Z,39.17
2019-04-16T18:40:24.416Z,39.88
2019-04-16T18:42:24.394Z,39.37
2019-04-16T18:44:24.369Z,39.17
2019-04-16T18:46:26.980Z,39.09
2019-04-16T18:48:25.334Z,39.29
2019-04-16T18:50:27.913Z,38.79
2019-04-16T18:52:24.290Z,39.39
2019-04-16T18:54:24.257Z,39.39
2019-04-16T18:56:24.232Z,39.01
2019-04-16T18:58:24.224Z,39.21
2019-04-16T19:00:24.277Z,39.42
2019-04-16T19:02:24.173Z,39.11
2019-04-16T19:04:24.162Z,39.53
2019-04-16T19:06:24.129Z,39.53
2019-04-16T19:08:24.102Z,39.43
2019-04-16T19:10:24.087Z,39.53
2019-04-16T19:12:24.063Z,39.33
2019-04-16T19:16:24.061Z,39.13
2019-04-16T19:18:23.999Z,39.55
2019-04-16T19:20:24.015Z,40.16
2019-04-16T19:22:23.955Z,40.36
2019-04-16T19:24:23.931Z,39.55
2019-04-16T19:26:23.927Z,40.38
2019-04-16T19:28:23.891Z,40.18
2019-04-16T19:30:23.921Z,39.98
2019-04-16T19:32:24.800Z,40.08
2019-04-16T19:34:23.825Z,40.08
2019-04-16T19:36:27.471Z,39.59
2019-04-16T19:38:23.791Z,40.20
2019-04-16T19:40:23.800Z,39.59
2019-04-16T19:42:25.713Z,40.20
2019-04-16T19:44:23.710Z,40.30
2019-04-16T19:46:23.724Z,40.09
2019-04-16T19:48:35.425Z,39.18
2019-04-16T19:50:24.648Z,40.22
2019-04-16T19:52:23.659Z,40.12
2019-04-16T19:54:23.676Z,40.22
2019-04-16T19:56:23.584Z,40.03
2019-04-16T19:58:23.584Z,40.14
2019-04-16T20:00:23.543Z,40.03
2019-04-16T20:02:23.521Z,40.03
2019-04-16T20:04:23.523Z,40.23
2019-04-16T20:06:26.108Z,39.83
2019-04-16T20:08:23.474Z,40.34
2019-04-16T20:10:23.437Z,40.23
2019-04-16T20:12:25.117Z,40.23
2019-04-16T20:14:23.402Z,40.23
2019-04-16T20:16:23.413Z,40.23
2019-04-16T20:18:23.348Z,40.23
2019-04-16T20:20:23.353Z,39.75
2019-04-16T20:22:23.325Z,40.23
2019-04-16T20:24:23.293Z,40.25
2019-04-16T20:26:23.266Z,40.25
2019-04-16T20:28:23.263Z,40.36
2019-04-16T20:30:24.378Z,40.25
2019-04-16T20:32:23.198Z,40.05
2019-04-16T20:34:23.175Z,40.25
2019-04-16T20:36:23.499Z,40.17
2019-04-16T20:39:42.613Z,40.17
2019-04-16T20:41:42.379Z,40.17
2019-04-16T20:43:42.261Z,39.87
2019-04-16T20:45:42.313Z,40.17
2019-04-16T20:47:42.360Z,40.68
2019-04-16T20:49:42.293Z,40.37
2019-04-16T20:51:42.232Z,40.39
2019-04-16T20:55:47.045Z,40.09
2019-04-16T20:57:43.102Z,40.09
2019-04-16T20:59:42.057Z,40.30
2019-04-16T21:01:42.040Z,40.31
2019-04-16T21:03:42.062Z,39.70
2019-04-16T21:05:57.108Z,40.31
2019-04-16T21:07:47.163Z,40.21
2019-04-16T21:09:42.382Z,40.11
2019-04-16T21:11:42.222Z,40.21
2019-04-16T21:13:42.563Z,40.11
2019-04-16T21:15:42.299Z,40.12
2019-04-16T21:17:42.133Z,40.53
2019-04-16T21:19:43.268Z,39.92
2019-04-16T21:21:41.821Z,40.12
2019-04-16T21:23:41.828Z,40.33
2019-04-16T21:25:42.866Z,39.90
2019-04-16T21:27:41.772Z,39.92
2019-04-16T21:29:41.777Z,39.92
2019-04-16T21:31:42.949Z,40.43
2019-04-16T21:33:41.699Z,40.33
2019-04-16T21:35:41.687Z,40.33
2019-04-16T21:37:41.661Z,40.33
2019-04-16T21:39:41.634Z,40.25
2019-04-16T21:41:41.626Z,40.03
2019-04-16T21:43:41.584Z,40.14
2019-04-16T21:45:41.572Z,40.12
2019-04-16T21:47:41.557Z,40.25
2019-04-16T21:49:45.007Z,40.25
2019-04-16T21:51:42.116Z,39.53
2019-04-16T21:53:41.483Z,40.14
2019-04-16T21:55:41.849Z,40.14
2019-04-16T21:57:42.850Z,39.43
2019-04-16T21:59:41.413Z,40.45
2019-04-16T22:01:47.637Z,40.35
2019-04-16T22:03:42.300Z,40.45
2019-04-16T22:05:41.362Z,39.94
2019-04-16T22:07:41.323Z,40.35
2019-04-16T22:09:42.169Z,40.37
2019-04-16T22:11:44.276Z,40.35
2019-04-16T22:13:41.369Z,40.37
2019-04-16T22:15:41.266Z,39.45
2019-04-16T22:17:41.213Z,40.25
2019-04-16T22:19:53.393Z,40.67
2019-04-16T22:21:42.807Z,40.66
2019-04-16T22:23:41.159Z,40.25
2019-04-16T22:25:42.139Z,40.25
2019-04-16T22:27:41.134Z,40.25
2019-04-16T22:29:48.313Z,40.26
2019-04-16T22:31:41.090Z,40.26
2019-04-16T22:33:41.050Z,40.26
2019-04-16T22:35:41.045Z,40.26
2019-04-16T22:37:41.010Z,40.57
2019-04-16T22:39:41.171Z,40.57
2019-04-16T22:41:40.980Z,39.64
2019-04-16T22:43:42.611Z,40.06
2019-04-16T22:45:40.917Z,39.64
2019-04-16T22:47:41.093Z,39.43
2019-04-16T22:49:40.886Z,39.64
2019-04-16T22:51:43.165Z,39.53
2019-04-16T22:53:40.842Z,39.33
2019-04-16T22:55:42.734Z,39.53
2019-04-16T22:57:40.860Z,39.64
2019-04-16T22:59:40.764Z,39.33
2019-04-16T23:01:41.736Z,39.23
2019-04-16T23:03:40.728Z,39.53
2019-04-16T23:05:40.698Z,39.55
2019-04-16T23:07:40.676Z,39.65
2019-04-16T23:09:40.676Z,39.43
2019-04-16T23:11:40.638Z,39.74
2019-04-16T23:13:40.632Z,39.84
2019-04-16T23:15:40.601Z,39.84
2019-04-16T23:17:42.809Z,39.64
2019-04-16T23:19:41.558Z,40.05
2019-04-16T23:21:42.521Z,39.84
2019-04-16T23:23:40.506Z,39.45
2019-04-16T23:25:40.498Z,39.53
2019-04-16T23:27:40.479Z,39.55
2019-04-16T23:29:40.446Z,39.25
